Time;durP1;ratioP1;P1;durP2;ratioP2;P2;SDS_P1;SDS_P2;PMS_P1;PMS_P2;Temp;Humidity;BMP_temperature;BMP_pressure;BME280_temperature;BME280_humidity;BME280_pressure;Samples;Min_cycle;Max_cycle;Signal;HPM_P1;HPM_P2
2022/10/22 00:00:49;;;;;;;53.20;50.10;;;15.80;99.90;;;;;;5048984;28;20862;-57
2022/10/22 00:03:14;;;;;;;53.00;49.88;;;15.80;99.90;;;;;;5048918;28;20375;-58
2022/10/22 00:05:40;;;;;;;56.07;52.67;;;15.80;99.90;;;;;;5049383;28;20626;-58
2022/10/22 00:08:05;;;;;;;55.03;51.80;;;15.80;99.90;;;;;;5069712;28;20471;-56
2022/10/22 00:10:31;;;;;;;53.20;50.13;;;15.90;99.90;;;;;;5051878;28;20672;-58
2022/10/22 00:12:56;;;;;;;53.30;50.20;;;15.90;99.90;;;;;;5069648;28;20434;-55
2022/10/22 00:15:22;;;;;;;52.72;49.58;;;15.80;99.90;;;;;;5069653;28;20415;-58
2022/10/22 00:17:48;;;;;;;53.90;50.80;;;15.90;99.90;;;;;;5071331;28;20465;-56
2022/10/22 00:20:14;;;;;;;54.47;51.20;;;15.90;99.90;;;;;;5053004;28;20384;-58
2022/10/22 00:22:40;;;;;;;56.07;52.60;;;15.90;99.90;;;;;;5070981;28;20510;-57
2022/10/22 00:25:05;;;;;;;56.53;53.10;;;15.90;99.90;;;;;;5052951;28;20403;-54
2022/10/22 00:27:31;;;;;;;62.85;58.85;;;15.90;99.90;;;;;;5053118;28;20706;-56
2022/10/22 00:29:56;;;;;;;53.27;49.93;;;15.80;99.90;;;;;;5054264;28;20380;-56
2022/10/22 00:32:22;;;;;;;52.78;49.47;;;15.70;99.90;;;;;;5052729;28;20589;-59
2022/10/22 00:34:48;;;;;;;53.30;50.00;;;15.80;99.90;;;;;;5048170;28;20413;-59
2022/10/22 00:37:13;;;;;;;47.17;44.30;;;15.80;99.90;;;;;;5048761;28;20680;-59
2022/10/22 00:39:39;;;;;;;52.00;48.85;;;15.80;99.90;;;;;;5048022;28;20481;-58
2022/10/22 00:42:04;;;;;;;52.80;49.70;;;15.80;99.90;;;;;;5047400;28;20495;-55
2022/10/22 00:45:00;;;;;;;53.70;50.50;;;15.80;99.90;;;;;;5047346;28;20429;-56
2022/10/22 00:47:30;;;;;;;52.13;49.10;;;15.80;99.90;;;;;;5047048;28;20446;-54
2022/10/22 00:49:57;;;;;;;55.22;51.97;;;15.80;99.90;;;;;;5049340;28;20382;-53
2022/10/22 00:52:23;;;;;;;52.20;49.15;;;15.80;99.90;;;;;;5049131;28;20400;-58
2022/10/22 00:54:50;;;;;;;52.38;49.40;;;15.80;99.90;;;;;;5048240;28;20798;-59
2022/10/22 00:57:18;;;;;;;56.33;52.97;;;15.80;99.90;;;;;;5051498;28;20393;-58
2022/10/22 00:59:44;;;;;;;52.47;49.40;;;15.80;99.90;;;;;;5051301;28;20383;-57
2022/10/22 01:02:10;;;;;;;51.35;48.28;;;15.80;99.90;;;;;;5051902;28;20406;-54
2022/10/22 01:04:35;;;;;;;55.95;52.65;;;15.80;99.90;;;;;;5050845;28;20411;-59
2022/10/22 01:07:01;;;;;;;52.00;48.80;;;15.80;99.90;;;;;;5052015;28;20412;-58
2022/10/22 01:09:32;;;;;;;50.33;47.42;;;15.80;99.90;;;;;;5052388;28;20400;-59
2022/10/22 01:12:17;;;;;;;53.63;50.33;;;15.80;99.90;;;;;;5054886;28;20724;-59
2022/10/22 01:15:01;;;;;;;49.78;46.88;;;15.80;99.90;;;;;;5053576;28;20435;-57
2022/10/22 01:17:38;;;;;;;50.45;47.15;;;15.80;99.90;;;;;;5054566;28;20383;-59
2022/10/22 01:20:19;;;;;;;54.60;51.15;;;15.80;99.90;;;;;;5053659;28;20400;-58
2022/10/22 01:23:12;;;;;;;56.15;52.75;;;15.80;99.90;;;;;;5054120;28;20808;-59
2022/10/22 01:26:07;;;;;;;55.47;51.95;;;15.80;99.90;;;;;;5053390;28;20658;-58
2022/10/22 01:28:49;;;;;;;61.37;57.10;;;15.70;99.90;;;;;;5055589;28;20385;-58
2022/10/22 01:31:16;;;;;;;59.80;55.58;;;15.70;99.90;;;;;;5058607;28;20458;-58
2022/10/22 01:33:44;;;;;;;57.40;53.65;;;15.70;99.90;;;;;;5056614;28;20391;-57
2022/10/22 01:36:11;;;;;;;50.92;47.72;;;15.60;99.90;;;;;;5056986;28;20416;-55
2022/10/22 01:38:38;;;;;;;49.20;46.05;;;15.60;99.90;;;;;;5056990;28;20396;-59
2022/10/22 01:41:05;;;;;;;52.10;48.72;;;15.60;99.90;;;;;;5055222;28;20385;-58
2022/10/22 01:43:31;;;;;;;53.08;49.67;;;15.70;99.90;;;;;;5056153;28;20378;-57
2022/10/22 01:46:00;;;;;;;54.25;50.65;;;15.70;99.90;;;;;;5055569;28;20454;-55
2022/10/22 01:48:52;;;;;;;53.22;49.85;;;15.70;99.90;;;;;;5055390;28;20413;-57
2022/10/22 01:51:38;;;;;;;61.85;57.55;;;15.70;99.90;;;;;;5056387;28;20458;-54
2022/10/22 01:54:07;;;;;;;61.17;57.13;;;15.60;99.90;;;;;;5054793;28;20389;-59
2022/10/22 01:56:45;;;;;;;54.70;51.22;;;15.50;99.90;;;;;;5055024;28;20454;-59
2022/10/22 01:59:29;;;;;;;53.17;49.97;;;15.50;99.90;;;;;;5054656;28;20537;-59
2022/10/22 02:02:23;;;;;;;53.05;49.75;;;15.50;99.90;;;;;;5056172;28;20480;-59
2022/10/22 02:05:15;;;;;;;56.63;52.90;;;15.60;99.90;;;;;;5055808;28;20386;-59
2022/10/22 02:07:48;;;;;;;59.77;56.13;;;15.60;99.90;;;;;;5056106;28;20404;-57
2022/10/22 02:10:16;;;;;;;57.50;54.10;;;15.50;99.90;;;;;;5055748;28;20769;-59
2022/10/22 02:12:43;;;;;;;65.10;61.03;;;15.50;99.90;;;;;;5054852;28;20669;-59
2022/10/22 02:15:11;;;;;;;58.95;55.15;;;15.50;99.90;;;;;;5054923;28;20393;-59
2022/10/22 02:17:38;;;;;;;59.80;56.07;;;15.40;99.90;;;;;;5054388;28;20386;-59
2022/10/22 02:20:16;;;;;;;57.45;53.75;;;15.40;99.90;;;;;;5054021;28;20781;-55
2022/10/22 02:22:41;;;;;;;56.35;52.80;;;15.40;99.90;;;;;;5053758;28;20474;-59
2022/10/22 02:25:10;;;;;;;57.63;53.83;;;15.40;99.90;;;;;;5053451;28;20401;-57
2022/10/22 02:27:45;;;;;;;54.65;51.15;;;15.40;99.90;;;;;;5055167;28;20476;-57
2022/10/22 02:30:17;;;;;;;52.90;49.67;;;15.30;99.90;;;;;;5052021;28;20382;-56
2022/10/22 02:33:07;;;;;;;52.42;49.15;;;15.30;99.90;;;;;;5051542;28;20657;-55
2022/10/22 02:35:34;;;;;;;50.15;46.95;;;15.30;99.90;;;;;;5052706;28;20969;-58
2022/10/22 02:38:01;;;;;;;51.95;48.75;;;15.30;99.90;;;;;;5053983;28;20682;-59
2022/10/22 02:40:29;;;;;;;51.08;47.78;;;15.20;99.90;;;;;;5053516;28;20396;-57
2022/10/22 02:42:55;;;;;;;50.97;47.67;;;15.20;99.90;;;;;;5052338;28;20405;-59
2022/10/22 02:45:21;;;;;;;47.35;44.20;;;15.20;99.90;;;;;;5052877;28;20477;-57
2022/10/22 02:47:47;;;;;;;48.53;45.53;;;15.20;99.90;;;;;;5052238;28;20385;-57
2022/10/22 02:50:12;;;;;;;44.50;41.70;;;15.20;99.90;;;;;;5051499;28;20404;-59
2022/10/22 02:52:38;;;;;;;48.50;45.40;;;15.20;99.90;;;;;;5051652;28;20801;-58
2022/10/22 02:55:04;;;;;;;45.55;42.55;;;15.20;99.90;;;;;;5051842;28;20566;-57
2022/10/22 02:57:30;;;;;;;45.30;42.33;;;15.10;99.90;;;;;;5052336;28;20646;-59
2022/10/22 02:59:56;;;;;;;46.50;43.40;;;15.10;99.90;;;;;;5052542;28;20400;-58
2022/10/22 03:02:21;;;;;;;45.50;42.58;;;15.10;99.90;;;;;;5055099;28;20851;-59
2022/10/22 03:04:47;;;;;;;47.47;44.40;;;15.10;99.90;;;;;;5054281;28;20378;-59
2022/10/22 03:07:12;;;;;;;45.30;42.40;;;15.10;99.90;;;;;;5053291;28;20412;-59
2022/10/22 03:09:38;;;;;;;43.58;40.70;;;15.10;99.90;;;;;;5054957;28;20398;-59
2022/10/22 03:12:04;;;;;;;47.17;44.17;;;15.00;99.90;;;;;;5054849;28;20381;-57
2022/10/22 03:14:29;;;;;;;50.30;47.03;;;15.00;99.90;;;;;;5051901;28;20417;-59
2022/10/22 03:16:55;;;;;;;44.83;41.92;;;15.00;99.90;;;;;;5052939;28;20393;-58
2022/10/22 03:19:20;;;;;;;43.40;40.43;;;15.00;99.90;;;;;;5051430;28;20683;-57
2022/10/22 03:21:54;;;;;;;50.70;47.20;;;15.00;99.90;;;;;;5052854;28;20421;-59
2022/10/22 03:24:25;;;;;;;47.80;44.70;;;15.00;99.90;;;;;;5052430;28;20400;-58
2022/10/22 03:26:51;;;;;;;50.58;47.15;;;14.90;99.90;;;;;;5052013;28;20409;-57
2022/10/22 03:29:19;;;;;;;47.20;44.30;;;14.90;99.90;;;;;;5052466;28;20882;-58
2022/10/22 03:31:45;;;;;;;46.92;43.90;;;14.90;99.90;;;;;;5052641;28;20678;-55
2022/10/22 03:34:12;;;;;;;55.28;51.67;;;14.90;99.90;;;;;;5054579;28;20390;-59
2022/10/22 03:36:39;;;;;;;54.78;51.17;;;14.80;99.90;;;;;;5073538;28;20387;-59
2022/10/22 03:39:06;;;;;;;51.93;48.53;;;14.80;99.90;;;;;;5057155;28;20475;-59
2022/10/22 03:41:32;;;;;;;53.53;50.08;;;14.70;99.90;;;;;;5056629;28;20403;-57
2022/10/22 03:44:01;;;;;;;57.30;53.45;;;14.70;99.90;;;;;;5055858;28;20372;-58
2022/10/22 03:46:29;;;;;;;48.95;45.85;;;14.70;99.90;;;;;;5073831;28;20382;-57
2022/10/22 03:48:55;;;;;;;47.83;44.67;;;14.70;99.90;;;;;;5057128;28;20399;-59
2022/10/22 03:51:20;;;;;;;47.97;44.97;;;14.60;99.90;;;;;;5055462;28;20392;-57
2022/10/22 03:53:46;;;;;;;51.80;48.20;;;14.70;99.90;;;;;;5073139;28;20392;-59
2022/10/22 03:56:12;;;;;;;50.78;47.55;;;14.70;99.90;;;;;;5054674;28;20379;-56
2022/10/22 03:58:40;;;;;;;51.38;48.20;;;14.70;99.90;;;;;;5074457;28;20391;-58
2022/10/22 04:01:07;;;;;;;51.58;48.50;;;14.70;99.90;;;;;;5072889;28;20392;-59
2022/10/22 04:03:33;;;;;;;57.05;53.28;;;14.80;99.90;;;;;;5054028;28;20387;-57
2022/10/22 04:06:04;;;;;;;56.30;52.80;;;14.70;99.90;;;;;;5073421;28;20391;-59
2022/10/22 04:08:29;;;;;;;54.25;50.75;;;14.70;99.90;;;;;;5056071;28;20423;-59
2022/10/22 04:10:55;;;;;;;59.20;55.30;;;14.70;99.90;;;;;;5055497;28;20568;-58
2022/10/22 04:13:20;;;;;;;57.08;53.40;;;14.60;99.90;;;;;;5055545;28;20455;-58
2022/10/22 04:15:46;;;;;;;52.93;49.40;;;14.60;99.90;;;;;;5055163;28;20448;-57
2022/10/22 04:18:11;;;;;;;46.13;43.03;;;14.50;99.90;;;;;;5053984;28;20426;-59
2022/10/22 04:20:37;;;;;;;49.80;46.40;;;14.40;99.90;;;;;;5052180;28;20418;-59
2022/10/22 04:23:02;;;;;;;46.63;43.43;;;14.50;99.90;;;;;;5049716;28;20408;-59
2022/10/22 04:25:28;;;;;;;47.67;44.47;;;14.50;99.90;;;;;;5050231;28;20460;-57
2022/10/22 04:27:53;;;;;;;45.97;43.23;;;14.40;99.90;;;;;;5051903;28;20388;-57
2022/10/22 04:30:19;;;;;;;46.45;43.65;;;14.50;99.90;;;;;;5052249;28;20415;-55
2022/10/22 04:32:44;;;;;;;46.83;43.93;;;14.50;99.90;;;;;;5051060;28;20430;-57
2022/10/22 04:35:10;;;;;;;50.83;47.80;;;14.50;99.90;;;;;;5052844;28;21066;-59
2022/10/22 04:37:35;;;;;;;51.07;47.97;;;14.50;99.90;;;;;;5070816;28;20835;-59
2022/10/22 04:40:01;;;;;;;54.80;51.40;;;14.50;99.90;;;;;;5055221;28;20721;-59
2022/10/22 04:42:26;;;;;;;48.40;45.50;;;14.50;99.90;;;;;;5071631;28;20841;-57
2022/10/22 04:44:52;;;;;;;51.10;47.80;;;14.50;99.90;;;;;;5053964;28;20388;-59
2022/10/22 04:47:17;;;;;;;53.97;50.67;;;14.50;99.90;;;;;;5056382;28;20797;-58
2022/10/22 04:49:43;;;;;;;53.07;49.83;;;14.50;99.90;;;;;;5056851;28;20399;-59
2022/10/22 04:52:08;;;;;;;49.00;46.08;;;14.50;99.90;;;;;;5072294;28;20482;-58
2022/10/22 04:54:34;;;;;;;51.97;48.73;;;14.50;99.90;;;;;;5052473;28;20754;-56
2022/10/22 04:56:59;;;;;;;51.83;48.73;;;14.50;99.90;;;;;;5050940;28;20882;-59
2022/10/22 04:59:25;;;;;;;51.33;47.50;;;14.50;99.90;;;;;;5067079;28;20444;-57
2022/10/22 05:01:50;;;;;;;42.73;39.97;;;14.50;99.90;;;;;;5049052;28;20407;-59
2022/10/22 05:04:18;;;;;;;49.42;46.42;;;14.50;99.90;;;;;;5049155;28;20866;-55
2022/10/22 05:06:44;;;;;;;46.33;43.53;;;14.40;99.90;;;;;;5067314;28;20423;-55
2022/10/22 05:09:15;;;;;;;46.63;43.63;;;14.40;99.90;;;;;;5048843;28;20474;-58
2022/10/22 05:11:47;;;;;;;48.63;45.30;;;14.40;99.90;;;;;;5049711;28;20582;-54
2022/10/22 05:14:14;;;;;;;46.73;43.73;;;14.40;99.90;;;;;;5050492;28;20392;-57
2022/10/22 05:16:40;;;;;;;47.20;44.17;;;14.40;99.90;;;;;;5050841;28;20471;-59
2022/10/22 05:19:06;;;;;;;49.90;46.57;;;14.40;99.90;;;;;;5050709;28;20475;-59
2022/10/22 05:21:32;;;;;;;49.08;45.85;;;14.40;99.90;;;;;;5068889;28;20634;-57
2022/10/22 05:24:01;;;;;;;49.40;46.20;;;14.40;99.90;;;;;;5051475;28;20386;-58
2022/10/22 05:26:27;;;;;;;49.17;45.97;;;14.40;99.90;;;;;;5052082;28;20403;-59
2022/10/22 05:28:53;;;;;;;52.90;49.60;;;14.40;99.90;;;;;;5052397;28;20388;-56
2022/10/22 05:31:19;;;;;;;48.10;45.13;;;14.40;99.90;;;;;;5052043;28;20406;-58
2022/10/22 05:33:45;;;;;;;51.80;48.40;;;14.40;99.90;;;;;;5053648;28;20388;-59
2022/10/22 05:36:17;;;;;;;49.13;46.03;;;14.40;99.90;;;;;;5071232;28;20412;-58
2022/10/22 05:38:43;;;;;;;55.72;51.85;;;14.50;99.90;;;;;;5069547;28;20449;-58
2022/10/22 05:41:11;;;;;;;53.37;50.07;;;14.40;99.90;;;;;;5068191;28;20521;-59
2022/10/22 05:43:37;;;;;;;53.75;49.95;;;14.40;99.90;;;;;;5051300;28;20641;-59
2022/10/22 05:46:07;;;;;;;51.03;47.72;;;14.20;99.90;;;;;;5051253;28;20380;-59
2022/10/22 05:48:33;;;;;;;50.53;47.33;;;14.20;99.90;;;;;;5050669;28;20383;-57
2022/10/22 05:51:08;;;;;;;49.97;46.65;;;14.20;99.90;;;;;;5069018;28;20402;-59
2022/10/22 05:53:36;;;;;;;49.97;46.92;;;14.20;99.90;;;;;;5067540;28;20458;-58
2022/10/22 05:56:04;;;;;;;47.15;44.20;;;14.20;99.90;;;;;;5050513;28;20394;-58
2022/10/22 05:58:30;;;;;;;47.67;44.78;;;14.20;99.90;;;;;;5050246;28;20411;-59
2022/10/22 06:01:04;;;;;;;47.40;44.50;;;14.20;99.90;;;;;;5069413;28;20471;-57
2022/10/22 06:03:30;;;;;;;49.25;46.15;;;14.20;99.90;;;;;;5049453;28;20396;-56
2022/10/22 06:06:00;;;;;;;49.97;46.47;;;14.10;99.90;;;;;;5050276;28;20395;-59
2022/10/22 06:08:26;;;;;;;46.10;43.07;;;14.10;99.90;;;;;;5053004;28;20458;-59
2022/10/22 06:10:53;;;;;;;42.72;40.03;;;14.00;99.90;;;;;;5072967;28;20369;-59
2022/10/22 06:13:18;;;;;;;45.30;41.85;;;13.90;99.90;;;;;;5088867;28;20777;-58
2022/10/22 06:15:44;;;;;;;43.97;40.88;;;13.90;99.90;;;;;;5069821;28;20436;-58
2022/10/22 06:18:10;;;;;;;43.30;40.40;;;13.90;99.90;;;;;;5088562;28;20774;-59
2022/10/22 06:20:35;;;;;;;44.50;41.55;;;13.90;99.90;;;;;;5071980;28;20891;-57
2022/10/22 06:23:01;;;;;;;43.63;40.73;;;14.00;99.90;;;;;;5072185;28;21123;-58
2022/10/22 06:25:26;;;;;;;43.67;40.77;;;14.00;99.90;;;;;;5071923;28;20390;-55
2022/10/22 06:27:52;;;;;;;44.73;41.90;;;14.10;99.90;;;;;;5068213;28;20389;-59
2022/10/22 06:30:17;;;;;;;44.33;41.63;;;14.20;99.90;;;;;;5069558;28;20467;-58
2022/10/22 06:32:43;;;;;;;52.53;49.30;;;14.20;99.90;;;;;;5075269;28;20463;-59
2022/10/22 06:35:08;;;;;;;52.72;49.20;;;14.30;99.90;;;;;;5072065;28;20850;-59
2022/10/22 06:37:34;;;;;;;51.33;48.00;;;14.20;99.90;;;;;;5056576;28;20399;-59
2022/10/22 06:39:59;;;;;;;50.13;47.00;;;14.20;99.90;;;;;;5056859;28;20858;-56
2022/10/22 06:42:26;;;;;;;50.42;47.28;;;14.30;99.90;;;;;;5051416;28;20411;-57
2022/10/22 06:44:52;;;;;;;52.78;49.47;;;14.30;99.90;;;;;;5051486;28;20644;-56
2022/10/22 06:47:17;;;;;;;49.57;46.57;;;14.30;99.90;;;;;;5049655;28;20794;-59
2022/10/22 06:49:43;;;;;;;51.27;48.27;;;14.30;99.90;;;;;;5048471;28;20440;-59
2022/10/22 06:52:08;;;;;;;51.17;48.08;;;14.30;99.90;;;;;;5050674;28;20407;-55
2022/10/22 06:54:34;;;;;;;51.77;48.67;;;14.30;99.90;;;;;;5068215;28;20684;-58
2022/10/22 06:56:59;;;;;;;50.10;47.10;;;14.30;99.90;;;;;;5050625;28;20391;-59
2022/10/22 06:59:25;;;;;;;57.27;53.80;;;14.40;99.90;;;;;;5048713;28;20387;-59
2022/10/22 07:01:50;;;;;;;51.63;48.63;;;14.40;99.90;;;;;;5049631;28;20586;-59
2022/10/22 07:04:16;;;;;;;50.97;47.97;;;14.40;99.90;;;;;;5050202;28;20387;-57
2022/10/22 07:06:42;;;;;;;54.30;51.20;;;14.40;99.90;;;;;;5048578;28;20644;-58
2022/10/22 07:09:07;;;;;;;53.85;50.63;;;14.40;99.90;;;;;;5064980;28;20392;-59
2022/10/22 07:11:42;;;;;;;54.33;51.20;;;14.50;99.90;;;;;;5046575;28;20601;-56
2022/10/22 07:14:08;;;;;;;50.45;47.47;;;14.50;99.90;;;;;;5051375;28;20791;-59
2022/10/22 07:16:33;;;;;;;52.97;49.90;;;14.50;99.90;;;;;;5052919;28;20399;-59
2022/10/22 07:19:03;;;;;;;50.97;47.97;;;14.50;99.90;;;;;;5051508;28;20946;-59
2022/10/22 07:21:29;;;;;;;51.55;48.65;;;14.50;99.90;;;;;;5042468;28;20510;-57
2022/10/22 07:23:55;;;;;;;46.72;44.00;;;14.50;99.90;;;;;;5042586;28;20892;-56
2022/10/22 07:26:21;;;;;;;50.97;48.17;;;14.60;99.90;;;;;;5061364;28;20376;-57
2022/10/22 07:28:47;;;;;;;50.88;47.88;;;14.60;99.90;;;;;;5046678;28;20913;-61
2022/10/22 07:31:15;;;;;;;51.47;48.47;;;14.60;99.90;;;;;;5043735;28;20932;-58
2022/10/22 07:33:41;;;;;;;53.03;49.70;;;14.60;99.90;;;;;;5040135;28;20563;-58
2022/10/22 07:36:16;;;;;;;57.63;53.97;;;14.60;99.90;;;;;;5040050;28;20496;-59
2022/10/22 07:38:43;;;;;;;49.45;46.15;;;14.60;99.90;;;;;;5062613;28;20387;-57
2022/10/22 07:41:09;;;;;;;51.67;48.53;;;14.60;99.90;;;;;;5047122;28;20394;-59
2022/10/22 07:43:35;;;;;;;49.25;46.17;;;14.60;99.90;;;;;;5047054;28;20383;-59
2022/10/22 07:46:01;;;;;;;57.73;54.13;;;14.60;99.90;;;;;;5045469;28;20391;-59
2022/10/22 07:48:27;;;;;;;53.10;49.80;;;14.60;99.90;;;;;;5046329;28;20555;-58
2022/10/22 07:50:53;;;;;;;55.03;51.63;;;14.60;99.90;;;;;;5045539;28;21044;-59
2022/10/22 07:53:20;;;;;;;53.60;50.33;;;14.60;99.90;;;;;;5042334;28;20794;-59
2022/10/22 07:55:49;;;;;;;51.70;48.60;;;14.60;99.90;;;;;;5040172;28;20384;-59
2022/10/22 07:58:16;;;;;;;54.15;50.65;;;14.70;99.90;;;;;;5040034;28;20376;-58
2022/10/22 08:00:43;;;;;;;51.50;48.30;;;14.70;99.90;;;;;;5058264;28;20438;-57
2022/10/22 08:03:13;;;;;;;58.70;55.00;;;14.70;99.90;;;;;;5040370;28;20395;-58
2022/10/22 08:05:38;;;;;;;58.73;55.03;;;14.60;99.90;;;;;;5057598;28;20448;-60
2022/10/22 08:08:06;;;;;;;55.90;52.63;;;14.60;99.90;;;;;;5059965;28;20388;-59
2022/10/22 08:10:33;;;;;;;61.00;57.30;;;14.70;99.90;;;;;;5044019;28;20380;-59
2022/10/22 08:12:59;;;;;;;56.13;52.63;;;14.60;99.90;;;;;;5045589;28;20766;-60
2022/10/22 08:15:26;;;;;;;54.37;51.03;;;14.70;99.90;;;;;;5045432;28;20876;-60
2022/10/22 08:17:51;;;;;;;57.05;53.35;;;14.80;99.90;;;;;;5044491;28;20429;-60
2022/10/22 08:20:17;;;;;;;59.88;56.05;;;14.80;99.90;;;;;;5044742;28;20387;-58
2022/10/22 08:22:43;;;;;;;52.90;49.65;;;14.80;99.90;;;;;;5044462;28;20418;-57
2022/10/22 08:25:09;;;;;;;54.80;51.20;;;14.80;99.90;;;;;;5066881;28;20402;-58
2022/10/22 08:27:35;;;;;;;50.33;47.42;;;14.90;99.90;;;;;;5053850;28;20380;-60
2022/10/22 08:30:01;;;;;;;57.45;53.63;;;15.00;99.90;;;;;;5069201;28;20380;-60
2022/10/22 08:32:27;;;;;;;54.88;51.35;;;15.00;99.90;;;;;;5044904;28;20395;-58
2022/10/22 08:34:53;;;;;;;52.90;49.70;;;15.00;99.90;;;;;;5043095;28;20696;-58
2022/10/22 08:37:18;;;;;;;55.40;51.70;;;15.10;99.90;;;;;;5042192;28;20403;-59
2022/10/22 08:39:44;;;;;;;55.28;51.70;;;15.10;99.90;;;;;;5040854;28;20408;-58
2022/10/22 08:42:31;;;;;;;56.35;52.70;;;15.20;99.90;;;;;;5040229;28;20567;-58
2022/10/22 08:45:13;;;;;;;55.47;51.53;;;15.10;99.90;;;;;;5038207;28;20375;-60
2022/10/22 08:47:58;;;;;;;49.35;46.03;;;15.00;99.90;;;;;;5038542;28;20754;-59
2022/10/22 08:50:44;;;;;;;45.50;42.10;;;15.10;99.90;;;;;;5040313;28;20382;-58
2022/10/22 08:53:24;;;;;;;52.93;49.50;;;15.10;99.90;;;;;;5056028;28;20827;-59
2022/10/22 08:55:52;;;;;;;45.60;42.60;;;15.10;99.90;;;;;;5037777;28;20776;-57
2022/10/22 08:58:47;;;;;;;49.50;46.17;;;15.10;99.90;;;;;;5040498;28;20396;-58
2022/10/22 09:01:18;;;;;;;51.40;48.03;;;15.20;99.90;;;;;;5023178;28;20677;-60
2022/10/22 09:03:57;;;;;;;49.85;46.65;;;15.30;99.90;;;;;;5038154;28;20384;-56
2022/10/22 09:06:30;;;;;;;53.13;49.53;;;15.40;99.90;;;;;;5057829;28;20642;-59
2022/10/22 09:08:57;;;;;;;52.22;48.63;;;15.50;99.90;;;;;;5060335;28;20680;-59
2022/10/22 09:11:30;;;;;;;50.95;47.67;;;15.50;99.90;;;;;;5041198;28;20444;-59
2022/10/22 09:13:56;;;;;;;52.05;48.85;;;15.60;99.90;;;;;;5040362;28;20410;-58
2022/10/22 09:16:37;;;;;;;54.45;50.90;;;15.70;99.90;;;;;;5041810;28;20776;-58
2022/10/22 09:19:13;;;;;;;49.35;46.30;;;15.70;99.90;;;;;;5043405;28;20695;-59
2022/10/22 09:21:58;;;;;;;50.53;46.97;;;15.80;99.90;;;;;;5062080;28;20411;-60
2022/10/22 09:24:32;;;;;;;49.60;46.23;;;15.80;99.90;;;;;;5046195;28;20413;-58
2022/10/22 09:26:58;;;;;;;45.80;42.77;;;16.00;99.90;;;;;;5046949;28;20917;-60
2022/10/22 09:29:31;;;;;;;39.20;36.70;;;16.00;99.90;;;;;;5045860;28;20632;-60
2022/10/22 09:31:57;;;;;;;35.78;33.47;;;16.10;99.90;;;;;;5042966;28;20890;-60
2022/10/22 09:34:22;;;;;;;40.43;37.80;;;16.10;99.90;;;;;;5042362;28;20651;-57
2022/10/22 09:36:57;;;;;;;31.52;29.40;;;16.20;99.90;;;;;;5040720;28;20391;-57
2022/10/22 09:39:27;;;;;;;32.45;30.20;;;16.30;99.90;;;;;;5038963;28;20379;-57
2022/10/22 09:41:52;;;;;;;30.77;28.58;;;16.40;99.90;;;;;;5036228;28;20680;-60
2022/10/22 09:44:19;;;;;;;33.70;31.23;;;16.40;99.90;;;;;;5055319;28;20384;-59
2022/10/22 09:46:45;;;;;;;32.65;30.45;;;16.50;99.90;;;;;;5039417;28;20387;-59
2022/10/22 09:49:20;;;;;;;29.33;27.35;;;16.50;99.90;;;;;;5044565;28;20384;-52
2022/10/22 09:51:57;;;;;;;38.30;35.95;;;16.60;99.90;;;;;;5050318;28;20403;-57
2022/10/22 09:54:45;;;;;;;35.15;32.88;;;16.70;99.90;;;;;;5052268;28;20392;-60
2022/10/22 09:57:17;;;;;;;42.88;40.15;;;16.80;99.90;;;;;;5071755;28;20970;-61
2022/10/22 09:59:47;;;;;;;44.95;41.97;;;16.90;99.90;;;;;;5073063;28;20379;-59
2022/10/22 10:02:16;;;;;;;42.92;40.22;;;17.10;99.90;;;;;;5052368;28;20926;-58
2022/10/22 10:04:48;;;;;;;40.58;38.00;;;17.30;99.90;;;;;;5050883;28;20375;-59
2022/10/22 10:07:25;;;;;;;38.50;35.83;;;17.40;99.90;;;;;;5052948;28;20654;-58
2022/10/22 10:09:52;;;;;;;34.65;32.67;;;17.50;99.90;;;;;;5072601;28;21028;-59
2022/10/22 10:12:39;;;;;;;39.13;36.65;;;17.60;99.90;;;;;;5071528;28;20838;-59
2022/10/22 10:15:23;;;;;;;35.90;33.63;;;17.50;99.90;;;;;;5053940;28;20387;-60
2022/10/22 10:18:16;;;;;;;40.03;36.92;;;17.50;99.90;;;;;;5054949;28;20494;-58
2022/10/22 10:21:03;;;;;;;37.30;34.60;;;17.60;99.90;;;;;;5057262;28;20386;-55
2022/10/22 10:23:51;;;;;;;36.00;33.70;;;17.70;99.90;;;;;;5057717;28;20445;-55
2022/10/22 10:26:25;;;;;;;29.17;27.30;;;17.80;99.90;;;;;;5055170;28;20978;-57
2022/10/22 10:29:04;;;;;;;32.28;30.10;;;17.80;99.90;;;;;;5054640;28;20391;-58
2022/10/22 10:31:33;;;;;;;48.60;45.25;;;18.00;99.90;;;;;;5054622;28;20375;-57
2022/10/22 10:34:41;;;;;;;29.05;27.13;;;18.00;99.90;;;;;;5071946;28;20375;-57
2022/10/22 10:37:17;;;;;;;32.60;30.60;;;18.20;99.90;;;;;;5048818;28;20407;-57
2022/10/22 10:40:20;;;;;;;47.20;44.28;;;18.40;99.90;;;;;;5049878;28;20376;-57
2022/10/22 10:43:40;;;;;;;54.03;50.55;;;18.50;99.90;;;;;;5011667;28;20408;-57
2022/10/22 10:46:55;;;;;;;47.35;44.47;;;18.70;99.90;;;;;;4966852;28;20443;-59
2022/10/22 10:49:25;;;;;;;56.50;52.97;;;18.80;99.90;;;;;;4946900;29;20386;-60
2022/10/22 10:52:19;;;;;;;64.43;60.53;;;18.80;99.90;;;;;;4932763;29;20453;-61
2022/10/22 10:55:10;;;;;;;76.88;72.25;;;19.00;99.90;;;;;;5013711;28;20398;-60
2022/10/22 10:57:52;;;;;;;81.90;77.20;;;19.30;99.90;;;;;;5048716;28;20379;-60
2022/10/22 11:00:19;;;;;;;83.07;78.32;;;19.30;99.90;;;;;;5045978;28;20414;-60
2022/10/22 11:03:11;;;;;;;76.50;72.20;;;19.20;99.90;;;;;;5048855;28;20447;-58
2022/10/22 11:05:38;;;;;;;73.70;69.47;;;19.30;99.90;;;;;;5046968;28;20465;-60
2022/10/22 11:08:13;;;;;;;69.40;65.45;;;19.60;99.90;;;;;;5046421;28;20880;-59
2022/10/22 11:10:41;;;;;;;78.45;73.85;;;19.80;99.90;;;;;;5045469;28;20874;-58
2022/10/22 11:13:30;;;;;;;85.47;81.07;;;20.00;99.90;;;;;;5041232;28;20383;-60
2022/10/22 11:16:17;;;;;;;89.20;84.30;;;20.40;99.90;;;;;;5041886;28;20710;-55
2022/10/22 11:18:50;;;;;;;98.50;92.90;;;20.80;99.90;;;;;;5041112;28;20657;-60
2022/10/22 11:21:39;;;;;;;94.55;89.07;;;20.80;99.90;;;;;;5041420;28;20399;-59
2022/10/22 11:24:04;;;;;;;101.65;96.15;;;20.80;99.90;;;;;;5061447;28;21151;-60
2022/10/22 11:27:01;;;;;;;107.03;100.90;;;21.10;99.90;;;;;;5061605;28;20458;-58
2022/10/22 11:29:33;;;;;;;113.97;107.63;;;21.40;99.90;;;;;;5040384;28;20904;-58
2022/10/22 11:32:01;;;;;;;123.03;116.18;;;21.20;99.90;;;;;;5039178;28;20380;-59
2022/10/22 11:34:37;;;;;;;130.90;123.57;;;20.80;99.90;;;;;;5061072;28;20691;-59
2022/10/22 11:37:04;;;;;;;136.02;128.35;;;21.10;99.90;;;;;;5044557;28;20395;-60
2022/10/22 11:39:41;;;;;;;134.50;126.72;;;21.30;99.90;;;;;;5061433;28;20464;-60
2022/10/22 11:42:14;;;;;;;127.10;119.97;;;21.20;99.90;;;;;;5043663;28;20524;-60
2022/10/22 11:45:02;;;;;;;117.22;110.72;;;21.00;99.90;;;;;;5046784;28;20811;-59
2022/10/22 11:47:53;;;;;;;124.17;117.07;;;21.40;99.90;;;;;;5065700;28;20410;-59
2022/10/22 11:50:45;;;;;;;128.95;121.72;;;21.80;99.90;;;;;;5047643;28;20387;-60
2022/10/22 11:53:11;;;;;;;132.82;125.22;;;21.50;99.90;;;;;;5034462;28;20399;-57
2022/10/22 11:55:50;;;;;;;141.20;133.45;;;21.20;99.90;;;;;;5048579;28;20388;-57
2022/10/22 11:58:29;;;;;;;118.28;111.57;;;21.40;99.90;;;;;;5047618;28;20380;-61
2022/10/22 12:01:16;;;;;;;121.15;114.28;;;21.90;99.90;;;;;;5046033;28;20440;-57
2022/10/22 12:04:11;;;;;;;132.00;124.80;;;21.80;99.90;;;;;;5045257;28;20400;-60
2022/10/22 12:07:03;;;;;;;114.38;107.88;;;22.10;99.90;;;;;;5045437;28;20402;-61
2022/10/22 12:09:31;;;;;;;111.37;105.20;;;22.00;99.90;;;;;;5043823;28;20570;-58
2022/10/22 12:12:23;;;;;;;120.47;113.88;;;22.00;99.90;;;;;;5043590;28;20656;-57
2022/10/22 12:14:56;;;;;;;115.63;108.88;;;21.90;99.90;;;;;;5036303;28;20384;-58
2022/10/22 12:17:22;;;;;;;108.72;102.57;;;21.90;99.90;;;;;;5062093;28;20386;-61
2022/10/22 12:20:12;;;;;;;107.60;101.63;;;21.70;99.90;;;;;;5043755;28;20387;-60
2022/10/22 12:22:38;;;;;;;107.88;101.65;;;21.50;99.90;;;;;;5044728;28;20411;-60
2022/10/22 12:25:21;;;;;;;105.97;99.88;;;21.60;99.90;;;;;;5046214;28;20403;-58
2022/10/22 12:27:58;;;;;;;94.40;89.25;;;21.30;99.90;;;;;;5047495;28;20787;-59
2022/10/22 12:30:34;;;;;;;89.90;84.82;;;21.10;99.90;;;;;;5063803;28;20772;-60
2022/10/22 12:33:03;;;;;;;84.53;79.83;;;21.00;99.90;;;;;;5047362;28;20503;-59
2022/10/22 12:35:31;;;;;;;86.88;81.97;;;20.80;99.90;;;;;;5063642;28;20443;-60
2022/10/22 12:38:00;;;;;;;79.15;74.82;;;20.50;99.90;;;;;;5045524;28;20403;-57
2022/10/22 12:40:45;;;;;;;87.95;82.57;;;20.40;99.90;;;;;;5044822;28;20387;-54
2022/10/22 12:43:12;;;;;;;86.28;81.15;;;20.10;99.90;;;;;;5046987;28;20400;-60
2022/10/22 12:45:38;;;;;;;90.97;85.70;;;20.00;99.90;;;;;;5046598;28;20386;-59